sensor_id;sensor_type;location;lat;lon;timestamp;pressure;altitude;pressure_sealevel;temperature;humidity
17260;BME280;8746;49.230;9.220;2023-11-21T00:00:54;99260.44;;;7.77;100.00
17260;BME280;8746;49.230;9.220;2023-11-21T00:03:19;99268.16;;;7.80;100.00
17260;BME280;8746;49.230;9.220;2023-11-21T00:05:45;99259.38;;;7.81;100.00
17260;BME280;8746;49.230;9.220;2023-11-21T00:08:10;99259.31;;;7.83;100.00
17260;BME280;8746;49.230;9.220;2023-11-21T00:10:36;99255.84;;;7.82;100.00
17260;BME280;8746;49.230;9.220;2023-11-21T00:13:03;99261.03;;;7.84;100.00
17260;BME280;8746;49.230;9.220;2023-11-21T00:15:28;99260.28;;;7.80;100.00
17260;BME280;8746;49.230;9.220;2023-11-21T00:17:54;99252.41;;;7.80;100.00
17260;BME280;8746;49.230;9.220;2023-11-21T00:20:19;99250.16;;;7.71;100.00
17260;BME280;8746;49.230;9.220;2023-11-21T00:22:45;99255.59;;;7.66;100.00
17260;BME280;8746;49.230;9.220;2023-11-21T00:25:10;99253.28;;;7.59;100.00
17260;BME280;8746;49.230;9.220;2023-11-21T00:27:36;99253.13;;;7.62;100.00
17260;BME280;8746;49.230;9.220;2023-11-21T00:30:03;99253.31;;;7.57;100.00
17260;BME280;8746;49.230;9.220;2023-11-21T00:32:30;99253.28;;;7.59;100.00
17260;BME280;8746;49.230;9.220;2023-11-21T00:34:56;99257.81;;;7.53;100.00
17260;BME280;8746;49.230;9.220;2023-11-21T00:37:21;99250.09;;;7.50;100.00
17260;BME280;8746;49.230;9.220;2023-11-21T00:39:46;99257.97;;;7.50;100.00
17260;BME280;8746;49.230;9.220;2023-11-21T00:42:12;99252.81;;;7.47;100.00
17260;BME280;8746;49.230;9.220;2023-11-21T00:44:38;99253.03;;;7.43;100.00
17260;BME280;8746;49.230;9.220;2023-11-21T00:47:04;99244.41;;;7.39;100.00
17260;BME280;8746;49.230;9.220;2023-11-21T00:49:29;99245.31;;;7.38;100.00
17260;BME280;8746;49.230;9.220;2023-11-21T00:51:55;99247.81;;;7.41;100.00
17260;BME280;8746;49.230;9.220;2023-11-21T00:54:20;99244.44;;;7.37;100.00
17260;BME280;8746;49.230;9.220;2023-11-21T00:56:45;99234.81;;;7.38;100.00
17260;BME280;8746;49.230;9.220;2023-11-21T00:59:13;99239.03;;;7.42;100.00
17260;BME280;8746;49.230;9.220;2023-11-21T01:01:38;99235.41;;;7.45;100.00
17260;BME280;8746;49.230;9.220;2023-11-21T01:04:04;99241.78;;;7.39;100.00
17260;BME280;8746;49.230;9.220;2023-11-21T01:06:31;99239.19;;;7.37;100.00
17260;BME280;8746;49.230;9.220;2023-11-21T01:08:56;99236.53;;;7.39;100.00
17260;BME280;8746;49.230;9.220;2023-11-21T01:11:21;99234.31;;;7.28;100.00
17260;BME280;8746;49.230;9.220;2023-11-21T01:13:47;99243.84;;;7.31;100.00
17260;BME280;8746;49.230;9.220;2023-11-21T01:16:12;99237.00;;;7.27;100.00
17260;BME280;8746;49.230;9.220;2023-11-21T01:18:38;99241.09;;;7.34;100.00
17260;BME280;8746;49.230;9.220;2023-11-21T01:21:03;99252.31;;;7.37;100.00
17260;BME280;8746;49.230;9.220;2023-11-21T01:23:29;99245.25;;;7.40;100.00
17260;BME280;8746;49.230;9.220;2023-11-21T01:25:56;99245.19;;;7.41;100.00
17260;BME280;8746;49.230;9.220;2023-11-21T01:28:21;99244.28;;;7.42;100.00
17260;BME280;8746;49.230;9.220;2023-11-21T01:30:47;99248.28;;;7.52;100.00
17260;BME280;8746;49.230;9.220;2023-11-21T01:33:13;99239.84;;;7.44;100.00
17260;BME280;8746;49.230;9.220;2023-11-21T01:35:40;99245.91;;;7.45;100.00
17260;BME280;8746;49.230;9.220;2023-11-21T01:38:06;99249.44;;;7.44;100.00
17260;BME280;8746;49.230;9.220;2023-11-21T01:40:33;99249.41;;;7.45;100.00
17260;BME280;8746;49.230;9.220;2023-11-21T01:42:58;99249.44;;;7.44;100.00
17260;BME280;8746;49.230;9.220;2023-11-21T01:45:24;99252.22;;;7.41;100.00
17260;BME280;8746;49.230;9.220;2023-11-21T01:47:51;99255.56;;;7.44;100.00
17260;BME280;8746;49.230;9.220;2023-11-21T01:50:18;99247.06;;;7.37;100.00
17260;BME280;8746;49.230;9.220;2023-11-21T01:52:46;99254.91;;;7.39;100.00
17260;BME280;8746;49.230;9.220;2023-11-21T01:55:15;99250.25;;;7.46;100.00
17260;BME280;8746;49.230;9.220;2023-11-21T01:57:43;99245.41;;;7.35;100.00
17260;BME280;8746;49.230;9.220;2023-11-21T02:00:09;99250.31;;;7.44;100.00
17260;BME280;8746;49.230;9.220;2023-11-21T02:02:48;99246.00;;;7.43;100.00
17260;BME280;8746;49.230;9.220;2023-11-21T02:05:17;99247.63;;;7.46;100.00
17260;BME280;8746;49.230;9.220;2023-11-21T02:07:47;99246.91;;;7.42;100.00
17260;BME280;8746;49.230;9.220;2023-11-21T02:10:17;99243.53;;;7.38;100.00
17260;BME280;8746;49.230;9.220;2023-11-21T02:12:51;99244.22;;;7.44;100.00
17260;BME280;8746;49.230;9.220;2023-11-21T02:15:17;99247.63;;;7.46;100.00
17260;BME280;8746;49.230;9.220;2023-11-21T02:17:46;99242.38;;;7.46;100.00
17260;BME280;8746;49.230;9.220;2023-11-21T02:20:13;99241.53;;;7.45;100.00
17260;BME280;8746;49.230;9.220;2023-11-21T02:22:44;99244.94;;;7.47;100.00
17260;BME280;8746;49.230;9.220;2023-11-21T02:25:10;99248.38;;;7.49;100.00
17260;BME280;8746;49.230;9.220;2023-11-21T02:27:36;99245.00;;;7.46;100.00
17260;BME280;8746;49.230;9.220;2023-11-21T02:30:03;99242.44;;;7.44;100.00
17260;BME280;8746;49.230;9.220;2023-11-21T02:32:29;99236.34;;;7.44;100.00
17260;BME280;8746;49.230;9.220;2023-11-21T02:34:57;99237.06;;;7.47;100.00
17260;BME280;8746;49.230;9.220;2023-11-21T02:37:26;99239.84;;;7.44;100.00
17260;BME280;8746;49.230;9.220;2023-11-21T02:39:51;99241.53;;;7.45;100.00
17260;BME280;8746;49.230;9.220;2023-11-21T02:42:17;99235.56;;;7.42;100.00
17260;BME280;8746;49.230;9.220;2023-11-21T02:44:43;99244.22;;;7.44;100.00
17260;BME280;8746;49.230;9.220;2023-11-21T02:47:09;99248.63;;;7.43;100.00
17260;BME280;8746;49.230;9.220;2023-11-21T02:49:35;99244.94;;;7.47;100.00
17260;BME280;8746;49.230;9.220;2023-11-21T02:52:01;99244.84;;;7.50;100.00
17260;BME280;8746;49.230;9.220;2023-11-21T02:54:26;99237.63;;;7.56;100.00
17260;BME280;8746;49.230;9.220;2023-11-21T02:56:52;99242.44;;;7.44;100.00
17260;BME280;8746;49.230;9.220;2023-11-21T02:59:18;99234.59;;;7.44;100.00
17260;BME280;8746;49.230;9.220;2023-11-21T03:01:45;99234.44;;;7.47;100.00
17260;BME280;8746;49.230;9.220;2023-11-21T03:04:10;99227.38;;;7.49;100.00
17260;BME280;8746;49.230;9.220;2023-11-21T03:06:36;99232.56;;;7.51;100.00
17260;BME280;8746;49.230;9.220;2023-11-21T03:09:01;99236.06;;;7.51;100.00
17260;BME280;8746;49.230;9.220;2023-11-21T03:11:27;99228.94;;;7.53;100.00
17260;BME280;8746;49.230;9.220;2023-11-21T03:13:52;99239.59;;;7.50;100.00
17260;BME280;8746;49.230;9.220;2023-11-21T03:16:18;99239.41;;;7.55;100.00
17260;BME280;8746;49.230;9.220;2023-11-21T03:18:44;99238.53;;;7.54;100.00
17260;BME280;8746;49.230;9.220;2023-11-21T03:21:09;99238.31;;;7.61;100.00
17260;BME280;8746;49.230;9.220;2023-11-21T03:23:35;99230.75;;;7.53;100.00
17260;BME280;8746;49.230;9.220;2023-11-21T03:26:02;99234.09;;;7.57;100.00
17260;BME280;8746;49.230;9.220;2023-11-21T03:28:27;99232.28;;;7.59;100.00
17260;BME280;8746;49.230;9.220;2023-11-21T03:30:53;99230.00;;;7.49;100.00
17260;BME280;8746;49.230;9.220;2023-11-21T03:33:18;99238.53;;;7.54;100.00
17260;BME280;8746;49.230;9.220;2023-11-21T03:35:44;99240.25;;;7.56;100.00
17260;BME280;8746;49.230;9.220;2023-11-21T03:38:10;99236.78;;;7.55;100.00
17260;BME280;8746;49.230;9.220;2023-11-21T03:40:35;99245.66;;;7.52;100.00
17260;BME280;8746;49.230;9.220;2023-11-21T03:43:00;99245.56;;;7.54;100.00
17260;BME280;8746;49.230;9.220;2023-11-21T03:45:26;99244.66;;;7.55;100.00
17260;BME280;8746;49.230;9.220;2023-11-21T03:47:51;99247.31;;;7.53;100.00
17260;BME280;8746;49.230;9.220;2023-11-21T03:50:16;99247.28;;;7.55;100.00
17260;BME280;8746;49.230;9.220;2023-11-21T03:52:42;99245.66;;;7.52;100.00
17260;BME280;8746;49.230;9.220;2023-11-21T03:55:08;99245.69;;;7.51;100.00
17260;BME280;8746;49.230;9.220;2023-11-21T03:57:33;99244.59;;;7.57;100.00
17260;BME280;8746;49.230;9.220;2023-11-21T03:59:59;99247.13;;;7.60;100.00
17260;BME280;8746;49.230;9.220;2023-11-21T04:02:24;99248.81;;;7.61;100.00
17260;BME280;8746;49.230;9.220;2023-11-21T04:04:51;99246.91;;;7.64;100.00
17260;BME280;8746;49.230;9.220;2023-11-21T04:07:16;99246.06;;;7.64;100.00
17260;BME280;8746;49.230;9.220;2023-11-21T04:09:42;99241.66;;;7.64;100.00
17260;BME280;8746;49.230;9.220;2023-11-21T04:12:08;99252.91;;;7.68;100.00
17260;BME280;8746;49.230;9.220;2023-11-21T04:14:34;99252.88;;;7.69;100.00
17260;BME280;8746;49.230;9.220;2023-11-21T04:17:01;99255.69;;;7.63;100.00
17260;BME280;8746;49.230;9.220;2023-11-21T04:19:26;99258.53;;;7.59;100.00
17260;BME280;8746;49.230;9.220;2023-11-21T04:21:52;99267.00;;;7.65;100.00
17260;BME280;8746;49.230;9.220;2023-11-21T04:24:17;99264.19;;;7.70;100.00
17260;BME280;8746;49.230;9.220;2023-11-21T04:26:46;99256.19;;;7.73;100.00
17260;BME280;8746;49.230;9.220;2023-11-21T04:29:11;99265.00;;;7.72;100.00
17260;BME280;8746;49.230;9.220;2023-11-21T04:31:37;99257.97;;;7.73;100.00
17260;BME280;8746;49.230;9.220;2023-11-21T04:34:02;99260.75;;;7.69;100.00
17260;BME280;8746;49.230;9.220;2023-11-21T04:36:29;99259.03;;;7.68;100.00
17260;BME280;8746;49.230;9.220;2023-11-21T04:38:56;99265.78;;;7.74;100.00
17260;BME280;8746;49.230;9.220;2023-11-21T04:41:21;99265.13;;;7.69;100.00
17260;BME280;8746;49.230;9.220;2023-11-21T04:43:46;99276.41;;;7.71;100.00
17260;BME280;8746;49.230;9.220;2023-11-21T04:46:11;99270.38;;;7.69;100.00
17260;BME280;8746;49.230;9.220;2023-11-21T04:48:37;99266.84;;;7.70;100.00
17260;BME280;8746;49.230;9.220;2023-11-21T04:51:02;99272.75;;;7.75;100.00
17260;BME280;8746;49.230;9.220;2023-11-21T04:53:29;99265.69;;;7.77;100.00
17260;BME280;8746;49.230;9.220;2023-11-21T04:55:54;99266.66;;;7.75;100.00
17260;BME280;8746;49.230;9.220;2023-11-21T04:58:20;99267.31;;;7.80;100.00
17260;BME280;8746;49.230;9.220;2023-11-21T05:00:45;99273.56;;;7.77;100.00
17260;BME280;8746;49.230;9.220;2023-11-21T05:03:11;99276.91;;;7.81;100.00
17260;BME280;8746;49.230;9.220;2023-11-21T05:05:37;99275.19;;;7.80;100.00
17260;BME280;8746;49.230;9.220;2023-11-21T05:08:02;99274.53;;;7.75;100.00
17260;BME280;8746;49.230;9.220;2023-11-21T05:10:28;99276.34;;;7.73;100.00
17260;BME280;8746;49.230;9.220;2023-11-21T05:12:54;99278.16;;;7.70;100.00
17260;BME280;8746;49.230;9.220;2023-11-21T05:15:21;99283.44;;;7.70;100.00
17260;BME280;8746;49.230;9.220;2023-11-21T05:17:47;99282.34;;;7.76;100.00
17260;BME280;8746;49.230;9.220;2023-11-21T05:20:15;99286.75;;;7.76;100.00
17260;BME280;8746;49.230;9.220;2023-11-21T05:22:46;99291.38;;;7.69;100.00
17260;BME280;8746;49.230;9.220;2023-11-21T05:25:13;99291.31;;;7.70;100.00
17260;BME280;8746;49.230;9.220;2023-11-21T05:27:39;99291.38;;;7.69;100.00
17260;BME280;8746;49.230;9.220;2023-11-21T05:30:05;99296.75;;;7.66;100.00
17260;BME280;8746;49.230;9.220;2023-11-21T05:32:33;99302.84;;;7.66;100.00
17260;BME280;8746;49.230;9.220;2023-11-21T05:34:59;99312.38;;;7.69;100.00
17260;BME280;8746;49.230;9.220;2023-11-21T05:37:24;99306.38;;;7.65;100.00
17260;BME280;8746;49.230;9.220;2023-11-21T05:39:52;99307.25;;;7.66;100.00
17260;BME280;8746;49.230;9.220;2023-11-21T05:42:18;99316.94;;;7.64;100.00
17260;BME280;8746;49.230;9.220;2023-11-21T05:44:43;99314.19;;;7.67;100.00
17260;BME280;8746;49.230;9.220;2023-11-21T05:47:09;99318.59;;;7.66;100.00
17260;BME280;8746;49.230;9.220;2023-11-21T05:49:34;99314.31;;;7.64;100.00
17260;BME280;8746;49.230;9.220;2023-11-21T05:52:00;99320.56;;;7.61;100.00
17260;BME280;8746;49.230;9.220;2023-11-21T05:54:25;99324.94;;;7.61;100.00
17260;BME280;8746;49.230;9.220;2023-11-21T05:56:51;99325.00;;;7.59;100.00
17260;BME280;8746;49.230;9.220;2023-11-21T05:59:16;99326.78;;;7.59;100.00
17260;BME280;8746;49.230;9.220;2023-11-21T06:01:42;99328.34;;;7.63;100.00
17260;BME280;8746;49.230;9.220;2023-11-21T06:04:07;99327.38;;;7.65;100.00
17260;BME280;8746;49.230;9.220;2023-11-21T06:06:36;99336.06;;;7.67;100.00
17260;BME280;8746;49.230;9.220;2023-11-21T06:09:01;99335.16;;;7.68;100.00
17260;BME280;8746;49.230;9.220;2023-11-21T06:11:27;99336.69;;;7.74;100.00
17260;BME280;8746;49.230;9.220;2023-11-21T06:13:52;99341.09;;;7.74;100.00
17260;BME280;8746;49.230;9.220;2023-11-21T06:16:18;99348.81;;;7.77;100.00
17260;BME280;8746;49.230;9.220;2023-11-21T06:18:45;99346.34;;;7.74;100.00
17260;BME280;8746;49.230;9.220;2023-11-21T06:21:11;99352.41;;;7.76;100.00
17260;BME280;8746;49.230;9.220;2023-11-21T06:23:36;99355.13;;;7.73;100.00
17260;BME280;8746;49.230;9.220;2023-11-21T06:26:02;99352.56;;;7.71;100.00
17260;BME280;8746;49.230;9.220;2023-11-21T06:28:28;99363.06;;;7.71;100.00
17260;BME280;8746;49.230;9.220;2023-11-21T06:30:54;99362.16;;;7.72;100.00
17260;BME280;8746;49.230;9.220;2023-11-21T06:33:19;99351.81;;;7.67;100.00
17260;BME280;8746;49.230;9.220;2023-11-21T06:35:45;99362.25;;;7.69;100.00
17260;BME280;8746;49.230;9.220;2023-11-21T06:38:10;99361.34;;;7.70;100.00
17260;BME280;8746;49.230;9.220;2023-11-21T06:40:35;99358.72;;;7.70;100.00
17260;BME280;8746;49.230;9.220;2023-11-21T06:43:01;99371.00;;;7.69;100.00
17260;BME280;8746;49.230;9.220;2023-11-21T06:45:27;99368.41;;;7.68;100.00
17260;BME280;8746;49.230;9.220;2023-11-21T06:47:52;99372.00;;;7.65;100.00
17260;BME280;8746;49.230;9.220;2023-11-21T06:50:18;99382.44;;;7.67;100.00
17260;BME280;8746;49.230;9.220;2023-11-21T06:52:43;99381.50;;;7.69;100.00
17260;BME280;8746;49.230;9.220;2023-11-21T06:55:09;99380.56;;;7.70;100.00
17260;BME280;8746;49.230;9.220;2023-11-21T06:57:35;99384.06;;;7.71;100.00
17260;BME280;8746;49.230;9.220;2023-11-21T07:00:00;99389.31;;;7.71;100.00
17260;BME280;8746;49.230;9.220;2023-11-21T07:02:26;99394.44;;;7.74;100.00
17260;BME280;8746;49.230;9.220;2023-11-21T07:04:52;99392.00;;;7.69;100.00
17260;BME280;8746;49.230;9.220;2023-11-21T07:07:18;99388.34;;;7.74;100.00
17260;BME280;8746;49.230;9.220;2023-11-21T07:09:44;99393.75;;;7.69;100.00
17260;BME280;8746;49.230;9.220;2023-11-21T07:12:09;99387.53;;;7.72;100.00
17260;BME280;8746;49.230;9.220;2023-11-21T07:14:36;99388.13;;;7.80;100.00
17260;BME280;8746;49.230;9.220;2023-11-21T07:17:02;99393.97;;;7.86;100.00
17260;BME280;8746;49.230;9.220;2023-11-21T07:19:27;99402.66;;;7.89;100.00
17260;BME280;8746;49.230;9.220;2023-11-21T07:21:52;99410.47;;;7.90;100.00
17260;BME280;8746;49.230;9.220;2023-11-21T07:24:18;99409.28;;;7.99;100.00
17260;BME280;8746;49.230;9.220;2023-11-21T07:26:44;99411.84;;;8.00;100.00
17260;BME280;8746;49.230;9.220;2023-11-21T07:29:09;99416.38;;;7.97;100.00
17260;BME280;8746;49.230;9.220;2023-11-21T07:31:36;99421.56;;;7.98;100.00
17260;BME280;8746;49.230;9.220;2023-11-21T07:34:02;99420.53;;;8.02;100.00
17260;BME280;8746;49.230;9.220;2023-11-21T07:36:27;99426.63;;;8.03;100.00
17260;BME280;8746;49.230;9.220;2023-11-21T07:38:53;99431.81;;;8.05;100.00
17260;BME280;8746;49.230;9.220;2023-11-21T07:41:19;99427.38;;;8.07;100.00
17260;BME280;8746;49.230;9.220;2023-11-21T07:43:45;99435.09;;;8.11;100.00
17260;BME280;8746;49.230;9.220;2023-11-21T07:46:11;99432.63;;;8.07;100.00
17260;BME280;8746;49.230;9.220;2023-11-21T07:48:38;99437.75;;;8.10;100.00
17260;BME280;8746;49.230;9.220;2023-11-21T07:51:03;99439.53;;;8.09;100.00
17260;BME280;8746;49.230;9.220;2023-11-21T07:53:29;99443.75;;;8.13;100.00
17260;BME280;8746;49.230;9.220;2023-11-21T07:55:58;99447.31;;;8.12;100.00
17260;BME280;8746;49.230;9.220;2023-11-21T07:58:27;99448.16;;;8.13;100.00
17260;BME280;8746;49.230;9.220;2023-11-21T08:00:52;99453.28;;;8.16;100.00
17260;BME280;8746;49.230;9.220;2023-11-21T08:03:18;99449.75;;;8.17;100.00
17260;BME280;8746;49.230;9.220;2023-11-21T08:05:43;99458.50;;;8.17;100.00
17260;BME280;8746;49.230;9.220;2023-11-21T08:08:09;99458.50;;;8.17;100.00
17260;BME280;8746;49.230;9.220;2023-11-21T08:10:34;99454.91;;;8.20;100.00
17260;BME280;8746;49.230;9.220;2023-11-21T08:13:04;99456.38;;;8.27;100.00
17260;BME280;8746;49.230;9.220;2023-11-21T08:15:29;99464.31;;;8.26;100.00
17260;BME280;8746;49.230;9.220;2023-11-21T08:17:57;99459.50;;;8.37;100.00
17260;BME280;8746;49.230;9.220;2023-11-21T08:20:22;99457.13;;;8.31;100.00
17260;BME280;8746;49.230;9.220;2023-11-21T08:22:49;99468.22;;;8.38;100.00
17260;BME280;8746;49.230;9.220;2023-11-21T08:25:15;99459.44;;;8.39;100.00
17260;BME280;8746;49.230;9.220;2023-11-21T08:27:40;99465.28;;;8.47;100.00
17260;BME280;8746;49.230;9.220;2023-11-21T08:30:06;99459.03;;;8.49;100.00
17260;BME280;8746;49.230;9.220;2023-11-21T08:32:32;99466.13;;;8.47;100.00
17260;BME280;8746;49.230;9.220;2023-11-21T08:35:00;99465.13;;;8.52;100.00
17260;BME280;8746;49.230;9.220;2023-11-21T08:37:26;99469.31;;;8.56;100.00
17260;BME280;8746;49.230;9.220;2023-11-21T08:39:52;99465.88;;;8.54;100.00
17260;BME280;8746;49.230;9.220;2023-11-21T08:42:18;99468.50;;;8.54;100.00
17260;BME280;8746;49.230;9.220;2023-11-21T08:44:43;99465.13;;;8.52;100.00
17260;BME280;8746;49.230;9.220;2023-11-21T08:47:09;99482.38;;;8.59;100.00
17260;BME280;8746;49.230;9.220;2023-11-21T08:49:34;99485.75;;;8.61;100.00
17260;BME280;8746;49.230;9.220;2023-11-21T08:51:59;99480.16;;;8.70;100.00
17260;BME280;8746;49.230;9.220;2023-11-21T08:54:26;99472.13;;;8.73;100.00
17260;BME280;8746;49.230;9.220;2023-11-21T08:56:54;99475.50;;;8.77;100.00
17260;BME280;8746;49.230;9.220;2023-11-21T08:59:20;99474.31;;;8.84;100.00
17260;BME280;8746;49.230;9.220;2023-11-21T09:01:46;99482.84;;;8.91;100.00
17260;BME280;8746;49.230;9.220;2023-11-21T09:04:12;99479.16;;;8.95;100.00
17260;BME280;8746;49.230;9.220;2023-11-21T09:06:39;99488.56;;;9.01;100.00
17260;BME280;8746;49.230;9.220;2023-11-21T09:09:05;99487.69;;;9.00;100.00
17260;BME280;8746;49.230;9.220;2023-11-21T09:11:34;99493.34;;;9.13;100.00
17260;BME280;8746;49.230;9.220;2023-11-21T09:14:01;99489.91;;;9.11;100.00
17260;BME280;8746;49.230;9.220;2023-11-21T09:16:26;99493.50;;;9.08;100.00
17260;BME280;8746;49.230;9.220;2023-11-21T09:18:51;99500.69;;;9.05;100.00
17260;BME280;8746;49.230;9.220;2023-11-21T09:21:17;99505.09;;;9.04;100.00
17260;BME280;8746;49.230;9.220;2023-11-21T09:23:44;99515.66;;;9.03;100.00
17260;BME280;8746;49.230;9.220;2023-11-21T09:26:09;99514.75;;;9.04;100.00
17260;BME280;8746;49.230;9.220;2023-11-21T09:28:35;99518.50;;;8.98;100.00
17260;BME280;8746;49.230;9.220;2023-11-21T09:31:03;99520.44;;;8.93;100.00
17260;BME280;8746;49.230;9.220;2023-11-21T09:33:30;99524.94;;;8.91;100.00
17260;BME280;8746;49.230;9.220;2023-11-21T09:35:56;99532.84;;;8.89;100.00
17260;BME280;8746;49.230;9.220;2023-11-21T09:38:23;99528.53;;;8.88;100.00
17260;BME280;8746;49.230;9.220;2023-11-21T09:40:48;99537.84;;;8.97;100.00
17260;BME280;8746;49.230;9.220;2023-11-21T09:43:16;99537.84;;;8.97;100.00
17260;BME280;8746;49.230;9.220;2023-11-21T09:45:45;99533.84;;;9.09;100.00
17260;BME280;8746;49.230;9.220;2023-11-21T09:48:11;99526.38;;;9.20;100.00
17260;BME280;8746;49.230;9.220;2023-11-21T09:50:37;99534.09;;;9.25;100.00
17260;BME280;8746;49.230;9.220;2023-11-21T09:53:13;99527.88;;;9.26;100.00
17260;BME280;8746;49.230;9.220;2023-11-21T09:55:46;99534.59;;;9.33;100.00
17260;BME280;8746;49.230;9.220;2023-11-21T09:58:15;99540.66;;;9.35;100.00
17260;BME280;8746;49.230;9.220;2023-11-21T10:00:42;99538.41;;;9.26;100.00
17260;BME280;8746;49.230;9.220;2023-11-21T10:03:08;99547.75;;;9.33;100.00
17260;BME280;8746;49.230;9.220;2023-11-21T10:05:35;99549.50;;;9.12;100.00
17260;BME280;8746;49.230;9.220;2023-11-21T10:08:00;99538.84;;;9.15;100.00
17260;BME280;8746;49.230;9.220;2023-11-21T10:10:27;99546.31;;;9.26;100.00
17260;BME280;8746;49.230;9.220;2023-11-21T10:12:56;99540.41;;;9.41;100.00
17260;BME280;8746;49.230;9.220;2023-11-21T10:15:24;99547.00;;;9.31;100.00
17260;BME280;8746;49.230;9.220;2023-11-21T10:17:53;99540.41;;;9.41;100.00
17260;BME280;8746;49.230;9.220;2023-11-21T10:20:20;99540.19;;;9.25;100.00
17260;BME280;8746;49.230;9.220;2023-11-21T10:22:45;99542.75;;;9.27;100.00
17260;BME280;8746;49.230;9.220;2023-11-21T10:25:12;99547.19;;;9.26;100.00
17260;BME280;8746;49.230;9.220;2023-11-21T10:27:40;99542.50;;;9.33;100.00
17260;BME280;8746;49.230;9.220;2023-11-21T10:30:07;99544.28;;;9.33;100.00
17260;BME280;8746;49.230;9.220;2023-11-21T10:32:42;99545.94;;;9.35;100.00
17260;BME280;8746;49.230;9.220;2023-11-21T10:35:08;99547.31;;;9.44;100.00
17260;BME280;8746;49.230;9.220;2023-11-21T10:37:36;99548.97;;;9.46;100.00
17260;BME280;8746;49.230;9.220;2023-11-21T10:40:05;99542.38;;;9.36;100.00
17260;BME280;8746;49.230;9.220;2023-11-21T10:42:32;99552.72;;;9.41;100.00
17260;BME280;8746;49.230;9.220;2023-11-21T10:44:58;99548.88;;;9.48;100.00
17260;BME280;8746;49.230;9.220;2023-11-21T10:47:23;99546.84;;;9.34;100.00
17260;BME280;8746;49.230;9.220;2023-11-21T10:49:49;99549.84;;;9.47;100.00
17260;BME280;8746;49.230;9.220;2023-11-21T10:52:14;99561.13;;;9.49;100.00
17260;BME280;8746;49.230;9.220;2023-11-21T10:54:43;99555.84;;;9.51;100.00
17260;BME280;8746;49.230;9.220;2023-11-21T10:57:10;99559.31;;;9.72;100.00
17260;BME280;8746;49.230;9.220;2023-11-21T10:59:36;99564.66;;;9.91;100.00
17260;BME280;8746;49.230;9.220;2023-11-21T11:02:11;99565.81;;;10.04;100.00
17260;BME280;8746;49.230;9.220;2023-11-21T11:04:47;99560.47;;;10.26;100.00
17260;BME280;8746;49.230;9.220;2023-11-21T11:07:14;99566.78;;;9.83;100.00
17260;BME280;8746;49.230;9.220;2023-11-21T11:09:41;99570.97;;;9.66;100.00
17260;BME280;8746;49.230;9.220;2023-11-21T11:12:08;99567.41;;;9.67;100.00
17260;BME280;8746;49.230;9.220;2023-11-21T11:14:35;99578.28;;;9.80;100.00
17260;BME280;8746;49.230;9.220;2023-11-21T11:17:00;99573.88;;;9.81;100.00
17260;BME280;8746;49.230;9.220;2023-11-21T11:19:27;99576.50;;;9.81;100.00
17260;BME280;8746;49.230;9.220;2023-11-21T11:22:03;99580.84;;;9.82;100.00
17260;BME280;8746;49.230;9.220;2023-11-21T11:27:25;99578.03;;;9.86;100.00
17260;BME280;8746;49.230;9.220;2023-11-21T11:37:53;99577.53;;;10.18;100.00
17260;BME280;8746;49.230;9.220;2023-11-21T11:40:19;99586.38;;;10.17;100.00
17260;BME280;8746;49.230;9.220;2023-11-21T11:42:58;99582.78;;;10.18;100.00
17260;BME280;8746;49.230;9.220;2023-11-21T11:45:25;99577.56;;;9.97;100.00
17260;BME280;8746;49.230;9.220;2023-11-21T11:47:57;99580.50;;;10.10;100.00
17260;BME280;8746;49.230;9.220;2023-11-21T11:50:22;99581.63;;;10.04;100.00
17260;BME280;8746;49.230;9.220;2023-11-21T11:52:51;99583.06;;;10.11;100.00
17260;BME280;8746;49.230;9.220;2023-11-21T11:55:19;99578.25;;;10.21;100.00
17260;BME280;8746;49.230;9.220;2023-11-21T11:57:54;99575.28;;;10.29;100.00
17260;BME280;8746;49.230;9.220;2023-11-21T12:02:53;99591.72;;;10.55;100.00
17260;BME280;8746;49.230;9.220;2023-11-21T12:05:20;99584.09;;;10.68;100.00
17260;BME280;8746;49.230;9.220;2023-11-21T12:07:53;99579.75;;;10.48;100.00
17260;BME280;8746;49.230;9.220;2023-11-21T12:10:21;99582.59;;;10.43;100.00
17260;BME280;8746;49.230;9.220;2023-11-21T12:12:49;99585.56;;;10.35;100.00
17260;BME280;8746;49.230;9.220;2023-11-21T12:15:15;99582.53;;;10.24;100.00
17260;BME280;8746;49.230;9.220;2023-11-21T12:17:42;99588.94;;;10.39;100.00
17260;BME280;8746;49.230;9.220;2023-11-21T12:20:09;99590.56;;;10.41;100.00
17260;BME280;8746;49.230;9.220;2023-11-21T12:22:45;99588.19;;;10.35;100.00
17260;BME280;8746;49.230;9.220;2023-11-21T12:25:24;99599.22;;;10.24;100.00
17260;BME280;8746;49.230;9.220;2023-11-21T12:27:53;99597.66;;;10.20;100.00
17260;BME280;8746;49.230;9.220;2023-11-21T12:30:23;99599.09;;;10.07;100.00
17260;BME280;8746;49.230;9.220;2023-11-21T12:32:50;99605.56;;;10.00;100.00
17260;BME280;8746;49.230;9.220;2023-11-21T12:35:17;99607.13;;;10.04;100.00
17260;BME280;8746;49.230;9.220;2023-11-21T12:37:44;99611.69;;;10.00;100.00
17260;BME280;8746;49.230;9.220;2023-11-21T12:40:10;99612.75;;;9.96;100.00
17260;BME280;8746;49.230;9.220;2023-11-21T12:42:47;99615.22;;;9.99;100.00
17260;BME280;8746;49.230;9.220;2023-11-21T12:47:43;99616.75;;;10.05;100.00
17260;BME280;8746;49.230;9.220;2023-11-21T12:50:10;99625.25;;;10.11;100.00
17260;BME280;8746;49.230;9.220;2023-11-21T12:52:47;99621.31;;;10.01;100.00
17260;BME280;8746;49.230;9.220;2023-11-21T12:55:20;99619.84;;;9.94;100.00
17260;BME280;8746;49.230;9.220;2023-11-21T12:57:51;99618.31;;;9.88;100.00
17260;BME280;8746;49.230;9.220;2023-11-21T13:00:19;99623.00;;;9.82;100.00
17260;BME280;8746;49.230;9.220;2023-11-21T13:02:55;99624.72;;;9.83;100.00
17260;BME280;8746;49.230;9.220;2023-11-21T13:07:50;99630.72;;;9.86;100.00
17260;BME280;8746;49.230;9.220;2023-11-21T13:10:20;99630.25;;;9.76;100.00
17260;BME280;8746;49.230;9.220;2023-11-21T13:12:51;99633.47;;;9.83;100.00
17260;BME280;8746;49.230;9.220;2023-11-21T13:15:17;99634.78;;;9.73;100.00
17260;BME280;8746;49.230;9.220;2023-11-21T13:17:43;99645.91;;;9.79;100.00
17260;BME280;8746;49.230;9.220;2023-11-21T13:20:11;99636.97;;;9.84;100.00
17260;BME280;8746;49.230;9.220;2023-11-21T13:22:48;99646.47;;;9.88;100.00
17260;BME280;8746;49.230;9.220;2023-11-21T13:25:15;99645.81;;;9.83;100.00